^^

Nearby METAR Reports

 

EGNV - Tees-Side, United Kingdom
Distance from station: SW 7mi, 11km
Updated: 24/11/2017 10:50
Few Clouds
Few Clouds
 Wind from SW
Wind: SW 5 mph , 7 km/h
Temperature: 4°C
Wind Chill: 2°C
Dew Point: 1°C
Humidity: 81%
Barometer: 1008 hPa
Clouds: Few Clouds
Visibility: 6 miles , 10 km
Cloud details: Few Clouds 762 m
2017/11/24 10:50 EGNV 241050Z 23004KT 200V280 9999 FEW025 04/01 Q1008
EGXE - Leeming Raf, United Kingdom
Distance from station: SSW 23mi, 37km
Updated: 24/11/2017 10:50
Few Clouds
Few Clouds
 Wind from SSW
Wind: SSW 2 mph , 4 km/h
Temperature: 6°C
Dew Point: 1°C
Humidity: 71%
Barometer: 1008 hPa
Clouds: Few Clouds
Visibility: 6 miles , 10 km
Cloud details: Few Clouds 549 m
2017/11/24 10:50 EGXE 241050Z 20002KT 9999 FEW018 06/01 Q1008 BLU NOSIG
 
EGXZ - Topcliffe Raf, United Kingdom
Distance from station: S 27mi, 43km
Updated: 24/11/2017 10:50
Few Clouds
Few Clouds
 Wind from S
Wind: S 3 mph , 6 km/h
Temperature: 5°C
Dew Point: 2°C
Humidity: 81%
Barometer: 1009 hPa
Clouds: Few Clouds
Visibility: 6 miles , 10 km
Cloud details: Few Clouds 914 m
2017/11/24 10:50 EGXZ 241050Z 18003KT 9999 FEW030 05/02 Q1009 BLACKBLU
EGXD - Dishforth Raf, United Kingdom
Distance from station: S 32mi, 51km
Updated: 06/06/2016 10:50
NOT Current
Clear
Clear
 Wind from SSE
Wind: SSE 5 mph , 7 km/h
Temperature: 18°C
Dew Point: 11°C
Humidity: 64%
Barometer: 1023 hPa
Clouds: Clear
Visibility: 6 miles , 10 km
2016/06/06 09:50 EGXD 060950Z AUTO 16004KT 9999 // NCD 18/11 Q1023
 
EGNT - Newcastle, United Kingdom
Distance from station: NNW 34mi, 54km
Updated: 24/11/2017 10:50
Few Clouds
Few Clouds
 Wind from W
Wind: W 12 mph , 19 km/h
Temperature: 3°C
Wind Chill: -2°C
Dew Point: 1°C
Humidity: 87%
Barometer: 1007 hPa
Clouds: Few Clouds
Visibility: 6 miles , 10 km
Cloud details: Few Clouds 457 m
2017/11/24 10:50 EGNT 241050Z 27010KT 9999 FEW015 03/01 Q1007
EGXU - Linton-On-Ouse R, United Kingdom
Distance from station: S 37mi, 60km
Updated: 24/11/2017 10:50
Few Clouds
Few Clouds
 Wind from WSW
Wind: WSW 7 mph , 11 km/h
Temperature: 5°C
Wind Chill: 2°C
Dew Point: 1°C
Humidity: 76%
Barometer: 1009 hPa
Clouds: Few Clouds
Visibility: 6 miles , 10 km
Cloud details: Few Clouds 762 m
2017/11/24 10:50 EGXU 241050Z 24006KT 9999 FEW025 05/01 Q1009 BLU NOSIG
 
EGNM - Leeds And Bradfo, United Kingdom
Distance from station: SSW 52mi, 83km
Updated: 24/11/2017 10:50
Clear
Clear
 Wind from WSW
Wind: WSW 7 mph , 11 km/h
Temperature: 5°C
Wind Chill: 2°C
Dew Point: 1°C
Humidity: 76%
Barometer: 1008 hPa
Summary: Clear
Visibility: greater than 7 miles , 10 km
2017/11/24 10:50 EGNM 241050Z 25006KT 190V350 CAVOK 05/01 Q1008
EGXG - Church Fenton Ra, United Kingdom
Distance from station: S 52mi, 84km
Updated: 19/12/2013 08:50
NOT Current
Clear
Clear
 Wind from SW
Wind: SW 16 mph , 26 km/h
Temperature: 4°C
Wind Chill: -1°C
Dew Point: -1°C
Humidity: 70%
Barometer: 996 hPa
Clouds: Clear
Visibility: 6 miles , 10 km
2013/12/19 08:50 EGXG 190850Z AUTO 23014KT 9999 NCD 04/M01 Q0996
 
EGOM - Spadeadam, United Kingdom
Distance from station: WNW 58mi, 94km
Updated: 24/11/2017 10:50
Fog, Mostly cloudy
Fog, Mostly cloudy
 Wind from WSW
Wind: WSW 14 mph , 22 km/h
Temperature: 0°C
Wind Chill: -6°C
Dew Point: 0°C
Humidity: 100%
Barometer: 1006 hPa
Summary: Fog
Clouds: Mostly cloudy
Visibility: 0 mile , 0 km
Cloud details: Mostly cloudy 30 m
2017/11/24 10:50 EGOM 241050Z 25012KT 0250 FG BKN001 00/00 Q1006 RED
EGNC - Carlisle, United Kingdom
Distance from station: WNW 65mi, 105km
Updated: 24/11/2017 10:50
Few Clouds
Few Clouds
 Wind from SSW
Wind: SSW 5 mph , 7 km/h
Temperature: 3°C
Wind Chill: 1°C
Dew Point: 2°C
Humidity: 93%
Barometer: 1008 hPa
Clouds: Few Clouds
Visibility: 6 miles , 10 km
Cloud details: Few Clouds 549 m
2017/11/24 10:50 EGNC 241050Z 21004KT 9999 FEW018TCU 03/02 Q1008
 
EGCN - Doncaster Sheffi, United Kingdom
Distance from station: S 77mi, 124km
Updated: 24/11/2017 10:50
Clear
Clear
 Wind from SW
Wind: SW 9 mph , 15 km/h
Temperature: 7°C
Wind Chill: 4°C
Dew Point: 3°C
Humidity: 76%
Barometer: 1011 hPa
Summary: Clear
Visibility: greater than 7 miles , 10 km
2017/11/24 10:50 EGCN 241050Z 22008KT CAVOK 07/03 Q1011
EGNJ - Humberside, United Kingdom
Distance from station: SSE 80mi, 129km
Updated: 24/11/2017 10:50
Clear
Clear
 Wind from SW
Wind: SW 9 mph , 15 km/h
Temperature: 6°C
Wind Chill: 3°C
Dew Point: 3°C
Humidity: 81%
Barometer: 1009 hPa
Summary: Clear
Visibility: greater than 7 miles , 10 km
2017/11/24 10:50 EGNJ 241050Z 22008KT CAVOK 06/03 Q1009
 
EGNH - Blackpool Airpor, United Kingdom
Distance from station: SW 90mi, 145km
Updated: 24/11/2017 10:50
Partly cloudy
Partly cloudy
 Wind from W
Wind: W 14 mph , 22 km/h
Temperature: 8°C
Wind Chill: 4°C
Dew Point: 2°C
Humidity: 66%
Barometer: 1009 hPa
Clouds: Partly cloudy
Visibility: 6 miles , 10 km
Cloud details: Partly cloudy 1036 m
2017/11/24 10:50 EGNH 241050Z 27012KT 9999 SCT034 08/02 Q1009
EGXP - Scampton Raf, United Kingdom
Distance from station: SSE 94mi, 151km
Updated: 24/11/2017 10:50
Clear
Clear
 Wind from W
Wind: W 10 mph , 17 km/h
Temperature: 5°C
Wind Chill: 2°C
Dew Point: 2°C
Humidity: 81%
Barometer: 1009 hPa
Summary: Clear
Visibility: greater than 7 miles , 10 km
2017/11/24 10:50 EGXP 241050Z 26009KT CAVOK 05/02 Q1009 BLU
 
EGCC - Manchester Intl, United Kingdom
Distance from station: SSW 94mi, 152km
Updated: 24/11/2017 10:50
Mostly cloudy
Mostly cloudy
 Wind from SW
Wind: SW 9 mph , 15 km/h
Temperature: 6°C
Wind Chill: 3°C
Dew Point: 2°C
Humidity: 76%
Barometer: 1010 hPa
Clouds: Mostly cloudy
Visibility: 6 miles , 10 km
Cloud details: Few Clouds 853 m
Mostly cloudy 1036 m
Mostly cloudy 1402 m
2017/11/24 10:50 EGCC 241050Z AUTO 23008KT 9999 FEW028 BKN034 BKN046 06/02 Q1010 NOSIG
EGOW - Woodvale Raf, United Kingdom
Distance from station: SW 100mi, 160km
Updated: 23/11/2017 14:50
NOT Current
Nearby showers, Partly cloudy
Nearby showers, Partly cloudy
 Wind from W
Wind: W 23 mph , 37 km/h, Gust: 35 mph , 56 km/h
Temperature: 9°C
Wind Chill: 4°C
Dew Point: 3°C
Humidity: 66%
Barometer: 997 hPa
Summary: Nearby Showers
Clouds: Partly cloudy
Visibility: 6 miles , 10 km
Cloud details: Partly cloudy 457 m
2017/11/23 14:50 EGOW 231450Z 28020G30KT 9999 VCSH SCT015 09/03 Q0997 WHT